Weather at Augusto Severo Airport

Public forecast

Using degrees Celsius for public forecast. Weather courtesy of forecast.io.

Current aviation weather report (METAR) for Augusto Severo Airport

Retrieved 2021/04/16 17:00 UTC (42 minutes ago):

SBNT 161700Z 10013KT 9999 SCT030 31/23 Q1009

Aviation forecast (TAF) for Augusto Severo Airport

Retrieved 2021/04/16 12:00 UTC (6 hours ago):

TAF SBNT 160840Z 1612/1624 17010KT 8000 BKN020 TX30/1615Z TN26/1624Z BECMG 1613/1615 13020KT 9999 BKN025 BECMG 1616/1618 SCT025 BECMG 1619/1621 13010KT FEW020 BECMG 1622/1624 16010KT RMK PGS